sensor_id;sensor_type;location;lat;lon;timestamp;P1;durP1;ratioP1;P2;durP2;ratioP2
11651;SDS011;5882;48.818;9.114;2023-03-02T00:02:08;14.67;;;7.33;;
11651;SDS011;5882;48.818;9.114;2023-03-02T00:04:36;12.10;;;7.63;;
11651;SDS011;5882;48.818;9.114;2023-03-02T00:07:05;12.07;;;8.03;;
11651;SDS011;5882;48.818;9.114;2023-03-02T00:09:36;11.57;;;7.17;;
11651;SDS011;5882;48.818;9.114;2023-03-02T00:12:03;10.80;;;7.47;;
11651;SDS011;5882;48.818;9.114;2023-03-02T00:14:32;9.90;;;7.07;;
11651;SDS011;5882;48.818;9.114;2023-03-02T00:17:01;11.90;;;7.57;;
11651;SDS011;5882;48.818;9.114;2023-03-02T00:19:28;10.93;;;6.63;;
11651;SDS011;5882;48.818;9.114;2023-03-02T00:21:58;9.30;;;6.80;;
11651;SDS011;5882;48.818;9.114;2023-03-02T00:24:31;12.80;;;7.60;;
11651;SDS011;5882;48.818;9.114;2023-03-02T00:26:57;12.43;;;7.50;;
11651;SDS011;5882;48.818;9.114;2023-03-02T00:29:24;12.63;;;6.47;;
11651;SDS011;5882;48.818;9.114;2023-03-02T00:31:52;15.83;;;8.37;;
11651;SDS011;5882;48.818;9.114;2023-03-02T00:34:22;11.70;;;6.80;;
11651;SDS011;5882;48.818;9.114;2023-03-02T00:36:49;14.67;;;7.93;;
11651;SDS011;5882;48.818;9.114;2023-03-02T00:39:16;12.83;;;7.60;;
11651;SDS011;5882;48.818;9.114;2023-03-02T00:41:50;14.53;;;7.07;;
11651;SDS011;5882;48.818;9.114;2023-03-02T00:44:16;14.27;;;8.10;;
11651;SDS011;5882;48.818;9.114;2023-03-02T00:46:43;16.50;;;8.07;;
11651;SDS011;5882;48.818;9.114;2023-03-02T00:49:16;13.33;;;8.43;;
11651;SDS011;5882;48.818;9.114;2023-03-02T00:51:43;17.37;;;8.70;;
11651;SDS011;5882;48.818;9.114;2023-03-02T00:54:10;13.70;;;7.10;;
11651;SDS011;5882;48.818;9.114;2023-03-02T00:56:37;11.17;;;7.23;;
11651;SDS011;5882;48.818;9.114;2023-03-02T00:59:07;10.90;;;6.77;;
11651;SDS011;5882;48.818;9.114;2023-03-02T01:01:35;12.57;;;6.83;;
11651;SDS011;5882;48.818;9.114;2023-03-02T01:04:02;12.40;;;7.37;;
11651;SDS011;5882;48.818;9.114;2023-03-02T01:06:30;13.07;;;7.27;;
11651;SDS011;5882;48.818;9.114;2023-03-02T01:08:57;13.30;;;7.53;;
11651;SDS011;5882;48.818;9.114;2023-03-02T01:11:24;12.03;;;7.60;;
11651;SDS011;5882;48.818;9.114;2023-03-02T01:13:52;12.17;;;7.03;;
11651;SDS011;5882;48.818;9.114;2023-03-02T01:16:19;9.90;;;6.80;;
11651;SDS011;5882;48.818;9.114;2023-03-02T01:18:47;9.47;;;6.63;;
11651;SDS011;5882;48.818;9.114;2023-03-02T01:21:14;12.70;;;7.57;;
11651;SDS011;5882;48.818;9.114;2023-03-02T01:23:45;15.53;;;8.63;;
11651;SDS011;5882;48.818;9.114;2023-03-02T01:26:16;11.17;;;7.10;;
11651;SDS011;5882;48.818;9.114;2023-03-02T01:28:45;13.23;;;7.33;;
11651;SDS011;5882;48.818;9.114;2023-03-02T01:31:11;12.03;;;7.67;;
11651;SDS011;5882;48.818;9.114;2023-03-02T01:33:49;12.90;;;6.87;;
11651;SDS011;5882;48.818;9.114;2023-03-02T01:36:17;10.37;;;7.27;;
11651;SDS011;5882;48.818;9.114;2023-03-02T01:38:45;12.63;;;7.63;;
11651;SDS011;5882;48.818;9.114;2023-03-02T01:41:14;10.77;;;6.80;;
11651;SDS011;5882;48.818;9.114;2023-03-02T01:43:46;11.83;;;6.87;;
11651;SDS011;5882;48.818;9.114;2023-03-02T01:46:16;12.27;;;7.83;;
11651;SDS011;5882;48.818;9.114;2023-03-02T01:48:45;10.87;;;6.73;;
11651;SDS011;5882;48.818;9.114;2023-03-02T01:51:12;11.80;;;7.70;;
11651;SDS011;5882;48.818;9.114;2023-03-02T01:53:41;12.63;;;7.73;;
11651;SDS011;5882;48.818;9.114;2023-03-02T01:56:12;11.97;;;7.30;;
11651;SDS011;5882;48.818;9.114;2023-03-02T01:58:43;10.10;;;7.13;;
11651;SDS011;5882;48.818;9.114;2023-03-02T02:01:11;12.13;;;8.13;;
11651;SDS011;5882;48.818;9.114;2023-03-02T02:03:44;13.63;;;8.03;;
11651;SDS011;5882;48.818;9.114;2023-03-02T02:06:13;12.63;;;7.67;;
11651;SDS011;5882;48.818;9.114;2023-03-02T02:08:44;11.33;;;6.87;;
11651;SDS011;5882;48.818;9.114;2023-03-02T02:11:14;12.20;;;7.00;;
11651;SDS011;5882;48.818;9.114;2023-03-02T02:13:44;11.93;;;7.23;;
11651;SDS011;5882;48.818;9.114;2023-03-02T02:16:14;14.80;;;7.57;;
11651;SDS011;5882;48.818;9.114;2023-03-02T02:18:41;10.80;;;7.20;;
11651;SDS011;5882;48.818;9.114;2023-03-02T02:21:08;9.90;;;6.77;;
11651;SDS011;5882;48.818;9.114;2023-03-02T02:23:37;10.43;;;7.37;;
11651;SDS011;5882;48.818;9.114;2023-03-02T02:26:13;11.13;;;6.97;;
11651;SDS011;5882;48.818;9.114;2023-03-02T02:28:43;16.33;;;7.77;;
11651;SDS011;5882;48.818;9.114;2023-03-02T02:31:20;10.47;;;6.43;;
11651;SDS011;5882;48.818;9.114;2023-03-02T02:33:52;14.23;;;8.37;;
11651;SDS011;5882;48.818;9.114;2023-03-02T02:36:21;10.50;;;6.47;;
11651;SDS011;5882;48.818;9.114;2023-03-02T02:38:51;11.60;;;7.00;;
11651;SDS011;5882;48.818;9.114;2023-03-02T02:41:21;10.00;;;6.80;;
11651;SDS011;5882;48.818;9.114;2023-03-02T02:43:50;10.90;;;6.70;;
11651;SDS011;5882;48.818;9.114;2023-03-02T02:46:16;14.20;;;7.83;;
11651;SDS011;5882;48.818;9.114;2023-03-02T02:48:43;8.50;;;6.47;;
11651;SDS011;5882;48.818;9.114;2023-03-02T02:51:11;14.00;;;7.83;;
11651;SDS011;5882;48.818;9.114;2023-03-02T02:53:46;12.37;;;8.33;;
11651;SDS011;5882;48.818;9.114;2023-03-02T02:56:22;11.27;;;6.93;;
11651;SDS011;5882;48.818;9.114;2023-03-02T02:58:50;11.77;;;7.63;;
11651;SDS011;5882;48.818;9.114;2023-03-02T03:01:19;13.20;;;8.13;;
11651;SDS011;5882;48.818;9.114;2023-03-02T03:03:50;12.17;;;5.77;;
11651;SDS011;5882;48.818;9.114;2023-03-02T03:06:22;10.17;;;6.40;;
11651;SDS011;5882;48.818;9.114;2023-03-02T03:08:57;13.00;;;7.30;;
11651;SDS011;5882;48.818;9.114;2023-03-02T03:11:27;13.43;;;7.70;;
11651;SDS011;5882;48.818;9.114;2023-03-02T03:13:59;11.17;;;7.27;;
11651;SDS011;5882;48.818;9.114;2023-03-02T03:16:33;12.70;;;7.87;;
11651;SDS011;5882;48.818;9.114;2023-03-02T03:19:05;13.07;;;7.00;;
11651;SDS011;5882;48.818;9.114;2023-03-02T03:21:33;11.37;;;6.97;;
11651;SDS011;5882;48.818;9.114;2023-03-02T03:24:03;10.87;;;6.47;;
11651;SDS011;5882;48.818;9.114;2023-03-02T03:26:36;10.00;;;6.73;;
11651;SDS011;5882;48.818;9.114;2023-03-02T03:29:05;11.00;;;6.30;;
11651;SDS011;5882;48.818;9.114;2023-03-02T03:31:32;13.37;;;6.87;;
11651;SDS011;5882;48.818;9.114;2023-03-02T03:34:02;12.70;;;7.37;;
11651;SDS011;5882;48.818;9.114;2023-03-02T03:36:36;11.73;;;6.57;;
11651;SDS011;5882;48.818;9.114;2023-03-02T03:39:08;11.83;;;7.20;;
11651;SDS011;5882;48.818;9.114;2023-03-02T03:41:43;9.37;;;7.00;;
11651;SDS011;5882;48.818;9.114;2023-03-02T03:44:10;13.10;;;7.53;;
11651;SDS011;5882;48.818;9.114;2023-03-02T03:46:37;10.77;;;7.20;;
11651;SDS011;5882;48.818;9.114;2023-03-02T03:49:04;11.17;;;7.83;;
11651;SDS011;5882;48.818;9.114;2023-03-02T03:51:31;11.70;;;8.37;;
11651;SDS011;5882;48.818;9.114;2023-03-02T03:53:59;13.63;;;7.47;;
11651;SDS011;5882;48.818;9.114;2023-03-02T03:56:26;12.67;;;7.33;;
11651;SDS011;5882;48.818;9.114;2023-03-02T03:59:00;13.50;;;8.20;;
11651;SDS011;5882;48.818;9.114;2023-03-02T04:01:33;11.20;;;7.23;;
11651;SDS011;5882;48.818;9.114;2023-03-02T04:04:02;11.47;;;6.70;;
11651;SDS011;5882;48.818;9.114;2023-03-02T04:06:29;14.37;;;7.73;;
11651;SDS011;5882;48.818;9.114;2023-03-02T04:09:04;14.07;;;8.10;;
11651;SDS011;5882;48.818;9.114;2023-03-02T04:11:31;13.63;;;8.57;;
11651;SDS011;5882;48.818;9.114;2023-03-02T04:14:00;11.60;;;6.83;;
11651;SDS011;5882;48.818;9.114;2023-03-02T04:16:27;13.90;;;7.80;;
11651;SDS011;5882;48.818;9.114;2023-03-02T04:18:54;14.27;;;7.73;;
11651;SDS011;5882;48.818;9.114;2023-03-02T04:21:21;13.17;;;8.63;;
11651;SDS011;5882;48.818;9.114;2023-03-02T04:23:47;10.87;;;7.67;;
11651;SDS011;5882;48.818;9.114;2023-03-02T04:26:14;14.13;;;8.50;;
11651;SDS011;5882;48.818;9.114;2023-03-02T04:28:41;11.90;;;7.93;;
11651;SDS011;5882;48.818;9.114;2023-03-02T04:31:18;11.93;;;7.83;;
11651;SDS011;5882;48.818;9.114;2023-03-02T04:33:47;12.63;;;7.97;;
11651;SDS011;5882;48.818;9.114;2023-03-02T04:36:15;9.87;;;7.33;;
11651;SDS011;5882;48.818;9.114;2023-03-02T04:38:45;16.60;;;7.93;;
11651;SDS011;5882;48.818;9.114;2023-03-02T04:41:12;13.23;;;7.00;;
11651;SDS011;5882;48.818;9.114;2023-03-02T04:43:40;11.13;;;7.83;;
11651;SDS011;5882;48.818;9.114;2023-03-02T04:46:11;12.43;;;8.10;;
11651;SDS011;5882;48.818;9.114;2023-03-02T04:48:42;14.80;;;8.10;;
11651;SDS011;5882;48.818;9.114;2023-03-02T04:51:11;11.27;;;7.77;;
11651;SDS011;5882;48.818;9.114;2023-03-02T04:53:42;9.63;;;7.43;;
11651;SDS011;5882;48.818;9.114;2023-03-02T04:56:11;14.07;;;7.50;;
11651;SDS011;5882;48.818;9.114;2023-03-02T04:58:40;12.40;;;7.93;;
11651;SDS011;5882;48.818;9.114;2023-03-02T05:01:14;10.80;;;7.63;;
11651;SDS011;5882;48.818;9.114;2023-03-02T05:03:44;12.30;;;7.37;;
11651;SDS011;5882;48.818;9.114;2023-03-02T05:06:11;10.20;;;7.67;;
11651;SDS011;5882;48.818;9.114;2023-03-02T05:08:38;15.70;;;7.43;;
11651;SDS011;5882;48.818;9.114;2023-03-02T05:11:05;12.23;;;7.83;;
11651;SDS011;5882;48.818;9.114;2023-03-02T05:13:35;12.03;;;7.77;;
11651;SDS011;5882;48.818;9.114;2023-03-02T05:16:05;13.97;;;8.70;;
11651;SDS011;5882;48.818;9.114;2023-03-02T05:18:39;11.87;;;7.67;;
11651;SDS011;5882;48.818;9.114;2023-03-02T05:21:18;17.03;;;7.33;;
11651;SDS011;5882;48.818;9.114;2023-03-02T05:23:50;12.13;;;7.80;;
11651;SDS011;5882;48.818;9.114;2023-03-02T05:26:19;14.17;;;7.97;;
11651;SDS011;5882;48.818;9.114;2023-03-02T05:28:46;11.17;;;7.77;;
11651;SDS011;5882;48.818;9.114;2023-03-02T05:31:13;17.03;;;8.27;;
11651;SDS011;5882;48.818;9.114;2023-03-02T05:33:43;13.73;;;8.87;;
11651;SDS011;5882;48.818;9.114;2023-03-02T05:36:09;14.17;;;7.47;;
11651;SDS011;5882;48.818;9.114;2023-03-02T05:38:40;14.40;;;8.03;;
11651;SDS011;5882;48.818;9.114;2023-03-02T05:41:07;13.90;;;7.90;;
11651;SDS011;5882;48.818;9.114;2023-03-02T05:43:33;10.83;;;7.97;;
11651;SDS011;5882;48.818;9.114;2023-03-02T05:46:00;12.50;;;7.50;;
11651;SDS011;5882;48.818;9.114;2023-03-02T05:48:29;13.03;;;7.53;;
11651;SDS011;5882;48.818;9.114;2023-03-02T05:51:00;15.70;;;9.00;;
11651;SDS011;5882;48.818;9.114;2023-03-02T05:53:27;17.93;;;10.20;;
11651;SDS011;5882;48.818;9.114;2023-03-02T05:55:59;16.00;;;9.47;;
11651;SDS011;5882;48.818;9.114;2023-03-02T05:58:29;14.97;;;9.43;;
11651;SDS011;5882;48.818;9.114;2023-03-02T06:01:06;13.97;;;8.90;;
11651;SDS011;5882;48.818;9.114;2023-03-02T06:03:44;14.17;;;8.83;;
11651;SDS011;5882;48.818;9.114;2023-03-02T06:06:18;13.93;;;8.53;;
11651;SDS011;5882;48.818;9.114;2023-03-02T06:08:47;14.77;;;8.90;;
11651;SDS011;5882;48.818;9.114;2023-03-02T06:11:18;13.33;;;8.37;;
11651;SDS011;5882;48.818;9.114;2023-03-02T06:13:45;10.93;;;7.40;;
11651;SDS011;5882;48.818;9.114;2023-03-02T06:16:12;14.67;;;8.97;;
11651;SDS011;5882;48.818;9.114;2023-03-02T06:18:43;13.90;;;8.83;;
11651;SDS011;5882;48.818;9.114;2023-03-02T06:21:15;13.03;;;8.27;;
11651;SDS011;5882;48.818;9.114;2023-03-02T06:23:52;16.57;;;9.97;;
11651;SDS011;5882;48.818;9.114;2023-03-02T06:26:24;14.33;;;8.53;;
11651;SDS011;5882;48.818;9.114;2023-03-02T06:28:57;14.30;;;8.90;;
11651;SDS011;5882;48.818;9.114;2023-03-02T06:31:25;18.93;;;10.17;;
11651;SDS011;5882;48.818;9.114;2023-03-02T06:34:02;18.13;;;10.33;;
11651;SDS011;5882;48.818;9.114;2023-03-02T06:36:36;14.70;;;10.03;;
11651;SDS011;5882;48.818;9.114;2023-03-02T06:39:06;16.30;;;8.93;;
11651;SDS011;5882;48.818;9.114;2023-03-02T06:41:44;16.33;;;9.20;;
11651;SDS011;5882;48.818;9.114;2023-03-02T06:44:19;19.07;;;9.53;;
11651;SDS011;5882;48.818;9.114;2023-03-02T06:49:45;14.63;;;8.77;;
11651;SDS011;5882;48.818;9.114;2023-03-02T06:52:41;16.80;;;9.17;;
11651;SDS011;5882;48.818;9.114;2023-03-02T06:55:10;13.40;;;8.90;;
11651;SDS011;5882;48.818;9.114;2023-03-02T07:06:36;15.83;;;9.53;;
11651;SDS011;5882;48.818;9.114;2023-03-02T07:12:07;17.07;;;9.33;;
11651;SDS011;5882;48.818;9.114;2023-03-02T07:21:42;13.07;;;8.20;;
11651;SDS011;5882;48.818;9.114;2023-03-02T07:37:45;15.93;;;8.93;;
11651;SDS011;5882;48.818;9.114;2023-03-02T07:40:12;16.37;;;9.50;;
11651;SDS011;5882;48.818;9.114;2023-03-02T07:42:39;14.40;;;9.17;;
11651;SDS011;5882;48.818;9.114;2023-03-02T07:45:09;14.20;;;8.73;;
11651;SDS011;5882;48.818;9.114;2023-03-02T07:47:36;14.90;;;8.97;;
11651;SDS011;5882;48.818;9.114;2023-03-02T07:50:04;14.80;;;8.40;;
11651;SDS011;5882;48.818;9.114;2023-03-02T07:52:31;13.13;;;8.33;;
11651;SDS011;5882;48.818;9.114;2023-03-02T07:55:00;13.03;;;8.23;;
11651;SDS011;5882;48.818;9.114;2023-03-02T07:57:29;15.57;;;9.37;;
11651;SDS011;5882;48.818;9.114;2023-03-02T07:59:55;13.83;;;8.17;;
11651;SDS011;5882;48.818;9.114;2023-03-02T08:02:22;14.13;;;8.60;;
11651;SDS011;5882;48.818;9.114;2023-03-02T08:04:54;11.07;;;7.70;;
11651;SDS011;5882;48.818;9.114;2023-03-02T08:07:24;13.63;;;8.47;;
11651;SDS011;5882;48.818;9.114;2023-03-02T08:09:51;14.60;;;8.47;;
11651;SDS011;5882;48.818;9.114;2023-03-02T08:12:23;16.77;;;8.90;;
11651;SDS011;5882;48.818;9.114;2023-03-02T08:14:50;17.30;;;9.20;;
11651;SDS011;5882;48.818;9.114;2023-03-02T08:17:17;13.73;;;9.10;;
11651;SDS011;5882;48.818;9.114;2023-03-02T08:19:44;15.30;;;8.90;;
11651;SDS011;5882;48.818;9.114;2023-03-02T08:22:17;13.67;;;8.90;;
11651;SDS011;5882;48.818;9.114;2023-03-02T08:24:48;20.80;;;9.43;;
11651;SDS011;5882;48.818;9.114;2023-03-02T08:27:14;13.57;;;8.80;;
11651;SDS011;5882;48.818;9.114;2023-03-02T08:29:42;18.30;;;9.97;;
11651;SDS011;5882;48.818;9.114;2023-03-02T08:32:09;15.50;;;8.47;;
11651;SDS011;5882;48.818;9.114;2023-03-02T08:34:38;15.85;;;8.70;;
11651;SDS011;5882;48.818;9.114;2023-03-02T08:37:07;14.98;;;9.05;;
11651;SDS011;5882;48.818;9.114;2023-03-02T08:39:34;15.10;;;9.43;;
11651;SDS011;5882;48.818;9.114;2023-03-02T08:42:01;14.85;;;9.60;;
11651;SDS011;5882;48.818;9.114;2023-03-02T08:44:28;16.73;;;9.32;;
11651;SDS011;5882;48.818;9.114;2023-03-02T08:46:57;14.43;;;8.43;;
11651;SDS011;5882;48.818;9.114;2023-03-02T08:49:23;14.43;;;8.73;;
11651;SDS011;5882;48.818;9.114;2023-03-02T08:52:04;13.57;;;8.75;;
11651;SDS011;5882;48.818;9.114;2023-03-02T08:54:33;14.93;;;8.68;;
11651;SDS011;5882;48.818;9.114;2023-03-02T08:57:02;14.70;;;8.32;;
11651;SDS011;5882;48.818;9.114;2023-03-02T08:59:31;11.70;;;8.48;;
11651;SDS011;5882;48.818;9.114;2023-03-02T09:01:59;14.30;;;8.98;;
11651;SDS011;5882;48.818;9.114;2023-03-02T09:04:28;12.98;;;8.15;;
11651;SDS011;5882;48.818;9.114;2023-03-02T09:07:08;14.88;;;8.88;;
11651;SDS011;5882;48.818;9.114;2023-03-02T09:09:57;13.00;;;8.77;;
11651;SDS011;5882;48.818;9.114;2023-03-02T09:12:24;13.05;;;8.15;;
11651;SDS011;5882;48.818;9.114;2023-03-02T09:14:51;15.73;;;9.40;;
11651;SDS011;5882;48.818;9.114;2023-03-02T09:17:19;13.57;;;8.02;;
11651;SDS011;5882;48.818;9.114;2023-03-02T09:19:46;15.50;;;9.23;;
11651;SDS011;5882;48.818;9.114;2023-03-02T09:22:13;14.57;;;8.52;;
11651;SDS011;5882;48.818;9.114;2023-03-02T09:24:42;15.27;;;7.90;;
11651;SDS011;5882;48.818;9.114;2023-03-02T09:27:18;17.35;;;9.05;;
11651;SDS011;5882;48.818;9.114;2023-03-02T09:30:03;14.15;;;8.50;;
11651;SDS011;5882;48.818;9.114;2023-03-02T09:32:52;11.75;;;8.15;;
11651;SDS011;5882;48.818;9.114;2023-03-02T09:35:59;14.20;;;8.30;;
11651;SDS011;5882;48.818;9.114;2023-03-02T09:38:33;11.18;;;7.60;;
11651;SDS011;5882;48.818;9.114;2023-03-02T09:41:11;12.80;;;8.15;;
11651;SDS011;5882;48.818;9.114;2023-03-02T09:44:06;14.13;;;7.65;;
11651;SDS011;5882;48.818;9.114;2023-03-02T09:46:39;14.48;;;7.97;;
11651;SDS011;5882;48.818;9.114;2023-03-02T09:49:29;14.88;;;7.65;;
11651;SDS011;5882;48.818;9.114;2023-03-02T09:52:15;14.70;;;8.50;;
11651;SDS011;5882;48.818;9.114;2023-03-02T09:55:15;13.03;;;7.60;;
11651;SDS011;5882;48.818;9.114;2023-03-02T10:04:28;12.70;;;7.75;;
11651;SDS011;5882;48.818;9.114;2023-03-02T10:07:59;13.40;;;7.32;;
11651;SDS011;5882;48.818;9.114;2023-03-02T10:13:43;14.52;;;7.70;;
11651;SDS011;5882;48.818;9.114;2023-03-02T10:16:59;12.60;;;7.68;;
11651;SDS011;5882;48.818;9.114;2023-03-02T10:19:20;13.30;;;7.72;;
11651;SDS011;5882;48.818;9.114;2023-03-02T10:21:55;14.48;;;8.25;;
11651;SDS011;5882;48.818;9.114;2023-03-02T10:24:28;12.85;;;7.72;;
11651;SDS011;5882;48.818;9.114;2023-03-02T10:27:15;10.77;;;7.40;;
11651;SDS011;5882;48.818;9.114;2023-03-02T10:29:47;15.43;;;8.05;;
11651;SDS011;5882;48.818;9.114;2023-03-02T10:32:19;13.45;;;7.70;;
11651;SDS011;5882;48.818;9.114;2023-03-02T10:34:47;16.15;;;8.32;;
11651;SDS011;5882;48.818;9.114;2023-03-02T10:37:35;14.95;;;8.23;;
11651;SDS011;5882;48.818;9.114;2023-03-02T10:44:03;12.73;;;8.20;;
11651;SDS011;5882;48.818;9.114;2023-03-02T10:49:50;12.43;;;7.63;;
11651;SDS011;5882;48.818;9.114;2023-03-02T10:52:29;14.43;;;8.10;;
11651;SDS011;5882;48.818;9.114;2023-03-02T10:55:14;15.30;;;8.10;;
11651;SDS011;5882;48.818;9.114;2023-03-02T10:57:57;13.00;;;7.15;;
11651;SDS011;5882;48.818;9.114;2023-03-02T11:00:28;15.23;;;8.00;;
11651;SDS011;5882;48.818;9.114;2023-03-02T11:03:19;14.27;;;8.10;;
11651;SDS011;5882;48.818;9.114;2023-03-02T11:05:53;11.35;;;7.63;;
11651;SDS011;5882;48.818;9.114;2023-03-02T11:08:33;13.85;;;8.02;;
11651;SDS011;5882;48.818;9.114;2023-03-02T11:14:29;11.82;;;8.02;;
11651;SDS011;5882;48.818;9.114;2023-03-02T11:17:12;12.02;;;7.55;;
11651;SDS011;5882;48.818;9.114;2023-03-02T11:59:14;10.40;;;7.38;;
11651;SDS011;5882;48.818;9.114;2023-03-02T12:01:53;13.30;;;8.20;;
11651;SDS011;5882;48.818;9.114;2023-03-02T12:04:25;12.98;;;7.78;;
11651;SDS011;5882;48.818;9.114;2023-03-02T12:06:52;10.23;;;7.13;;
11651;SDS011;5882;48.818;9.114;2023-03-02T12:09:36;11.57;;;8.02;;
11651;SDS011;5882;48.818;9.114;2023-03-02T12:12:26;13.98;;;8.32;;
11651;SDS011;5882;48.818;9.114;2023-03-02T12:21:41;17.33;;;7.38;;
11651;SDS011;5882;48.818;9.114;2023-03-02T12:27:32;11.75;;;7.35;;
11651;SDS011;5882;48.818;9.114;2023-03-02T12:55:14;14.18;;;8.07;;
11651;SDS011;5882;48.818;9.114;2023-03-02T12:58:51;15.05;;;7.82;;
11651;SDS011;5882;48.818;9.114;2023-03-02T13:01:26;10.40;;;7.03;;
11651;SDS011;5882;48.818;9.114;2023-03-02T13:04:24;10.70;;;7.22;;
11651;SDS011;5882;48.818;9.114;2023-03-02T13:28:29;12.50;;;7.38;;
11651;SDS011;5882;48.818;9.114;2023-03-02T13:31:18;11.85;;;7.53;;
11651;SDS011;5882;48.818;9.114;2023-03-02T13:34:01;12.13;;;7.55;;
11651;SDS011;5882;48.818;9.114;2023-03-02T13:36:33;13.30;;;7.90;;
11651;SDS011;5882;48.818;9.114;2023-03-02T13:39:14;11.27;;;7.18;;
11651;SDS011;5882;48.818;9.114;2023-03-02T13:42:23;13.80;;;8.43;;
11651;SDS011;5882;48.818;9.114;2023-03-02T13:45:20;13.02;;;7.63;;
11651;SDS011;5882;48.818;9.114;2023-03-02T14:15:36;12.55;;;8.90;;
11651;SDS011;5882;48.818;9.114;2023-03-02T14:18:36;13.68;;;7.45;;
11651;SDS011;5882;48.818;9.114;2023-03-02T14:34:09;12.80;;;8.35;;
11651;SDS011;5882;48.818;9.114;2023-03-02T14:36:42;13.32;;;7.28;;
11651;SDS011;5882;48.818;9.114;2023-03-02T14:39:12;17.00;;;8.90;;
11651;SDS011;5882;48.818;9.114;2023-03-02T14:41:45;10.98;;;7.22;;
11651;SDS011;5882;48.818;9.114;2023-03-02T14:44:16;10.82;;;7.70;;
11651;SDS011;5882;48.818;9.114;2023-03-02T14:46:43;12.48;;;7.90;;
11651;SDS011;5882;48.818;9.114;2023-03-02T14:49:13;12.20;;;7.85;;
11651;SDS011;5882;48.818;9.114;2023-03-02T14:51:41;12.77;;;8.60;;
11651;SDS011;5882;48.818;9.114;2023-03-02T14:54:24;12.38;;;8.25;;
11651;SDS011;5882;48.818;9.114;2023-03-02T14:57:08;13.57;;;7.72;;
11651;SDS011;5882;48.818;9.114;2023-03-02T14:59:40;12.70;;;8.07;;
11651;SDS011;5882;48.818;9.114;2023-03-02T15:02:08;12.85;;;8.05;;
11651;SDS011;5882;48.818;9.114;2023-03-02T15:04:36;10.55;;;7.68;;
11651;SDS011;5882;48.818;9.114;2023-03-02T15:07:09;11.90;;;7.38;;
11651;SDS011;5882;48.818;9.114;2023-03-02T15:09:41;13.75;;;8.57;;
11651;SDS011;5882;48.818;9.114;2023-03-02T15:12:16;14.45;;;7.93;;
11651;SDS011;5882;48.818;9.114;2023-03-02T15:17:42;11.63;;;6.85;;
11651;SDS011;5882;48.818;9.114;2023-03-02T15:20:12;12.32;;;7.57;;
11651;SDS011;5882;48.818;9.114;2023-03-02T15:22:51;11.75;;;7.72;;
11651;SDS011;5882;48.818;9.114;2023-03-02T15:25:18;10.32;;;7.05;;
11651;SDS011;5882;48.818;9.114;2023-03-02T15:27:46;10.63;;;7.30;;
11651;SDS011;5882;48.818;9.114;2023-03-02T15:30:17;9.25;;;6.47;;
11651;SDS011;5882;48.818;9.114;2023-03-02T15:32:48;12.30;;;7.53;;
11651;SDS011;5882;48.818;9.114;2023-03-02T15:35:17;8.68;;;6.57;;
11651;SDS011;5882;48.818;9.114;2023-03-02T15:37:44;10.45;;;7.00;;
11651;SDS011;5882;48.818;9.114;2023-03-02T15:40:11;9.63;;;6.53;;
11651;SDS011;5882;48.818;9.114;2023-03-02T15:42:38;8.70;;;5.82;;
11651;SDS011;5882;48.818;9.114;2023-03-02T15:45:13;10.95;;;7.25;;
11651;SDS011;5882;48.818;9.114;2023-03-02T15:47:40;14.18;;;7.40;;
11651;SDS011;5882;48.818;9.114;2023-03-02T15:50:07;13.50;;;6.95;;
11651;SDS011;5882;48.818;9.114;2023-03-02T15:52:35;10.20;;;6.75;;
11651;SDS011;5882;48.818;9.114;2023-03-02T15:55:02;12.43;;;7.30;;
11651;SDS011;5882;48.818;9.114;2023-03-02T15:57:29;12.05;;;7.50;;
11651;SDS011;5882;48.818;9.114;2023-03-02T15:59:55;13.20;;;8.52;;
11651;SDS011;5882;48.818;9.114;2023-03-02T16:02:22;13.35;;;8.55;;
11651;SDS011;5882;48.818;9.114;2023-03-02T16:04:48;12.40;;;7.95;;
11651;SDS011;5882;48.818;9.114;2023-03-02T16:07:15;12.20;;;7.95;;
11651;SDS011;5882;48.818;9.114;2023-03-02T16:09:43;12.35;;;7.20;;
11651;SDS011;5882;48.818;9.114;2023-03-02T16:12:10;10.70;;;7.07;;
11651;SDS011;5882;48.818;9.114;2023-03-02T16:14:37;9.73;;;6.85;;
11651;SDS011;5882;48.818;9.114;2023-03-02T16:17:04;10.15;;;7.07;;
11651;SDS011;5882;48.818;9.114;2023-03-02T16:19:30;14.07;;;8.10;;
11651;SDS011;5882;48.818;9.114;2023-03-02T16:21:57;12.13;;;8.15;;
11651;SDS011;5882;48.818;9.114;2023-03-02T16:24:24;12.05;;;7.40;;
11651;SDS011;5882;48.818;9.114;2023-03-02T16:26:52;11.35;;;7.20;;
11651;SDS011;5882;48.818;9.114;2023-03-02T16:29:19;12.27;;;7.93;;
11651;SDS011;5882;48.818;9.114;2023-03-02T16:31:46;13.02;;;8.63;;
11651;SDS011;5882;48.818;9.114;2023-03-02T16:34:13;11.60;;;7.72;;
11651;SDS011;5882;48.818;9.114;2023-03-02T16:36:40;14.02;;;7.88;;
11651;SDS011;5882;48.818;9.114;2023-03-02T16:39:07;11.85;;;7.68;;
11651;SDS011;5882;48.818;9.114;2023-03-02T16:41:34;11.80;;;7.80;;
11651;SDS011;5882;48.818;9.114;2023-03-02T16:44:02;11.20;;;7.32;;
11651;SDS011;5882;48.818;9.114;2023-03-02T16:46:30;11.40;;;8.02;;
11651;SDS011;5882;48.818;9.114;2023-03-02T16:48:57;14.30;;;8.32;;
11651;SDS011;5882;48.818;9.114;2023-03-02T16:51:24;11.45;;;7.40;;
11651;SDS011;5882;48.818;9.114;2023-03-02T16:53:53;11.40;;;7.80;;
11651;SDS011;5882;48.818;9.114;2023-03-02T16:56:20;14.48;;;7.95;;
11651;SDS011;5882;48.818;9.114;2023-03-02T16:58:47;11.73;;;7.88;;
11651;SDS011;5882;48.818;9.114;2023-03-02T17:01:15;13.52;;;8.75;;
11651;SDS011;5882;48.818;9.114;2023-03-02T17:03:42;14.15;;;8.00;;
11651;SDS011;5882;48.818;9.114;2023-03-02T17:06:10;11.18;;;7.75;;
11651;SDS011;5882;48.818;9.114;2023-03-02T17:08:37;16.13;;;8.40;;
11651;SDS011;5882;48.818;9.114;2023-03-02T17:11:04;11.95;;;8.18;;
11651;SDS011;5882;48.818;9.114;2023-03-02T17:13:31;12.73;;;8.30;;
11651;SDS011;5882;48.818;9.114;2023-03-02T17:15:58;14.57;;;9.32;;
11651;SDS011;5882;48.818;9.114;2023-03-02T17:18:28;15.07;;;8.73;;
11651;SDS011;5882;48.818;9.114;2023-03-02T17:20:56;11.25;;;7.35;;
11651;SDS011;5882;48.818;9.114;2023-03-02T17:23:26;14.13;;;8.27;;
11651;SDS011;5882;48.818;9.114;2023-03-02T17:25:52;14.05;;;8.57;;
11651;SDS011;5882;48.818;9.114;2023-03-02T17:28:19;16.95;;;7.95;;
11651;SDS011;5882;48.818;9.114;2023-03-02T17:30:46;15.35;;;8.57;;
11651;SDS011;5882;48.818;9.114;2023-03-02T17:33:14;13.57;;;7.45;;
11651;SDS011;5882;48.818;9.114;2023-03-02T17:35:43;13.57;;;8.30;;
11651;SDS011;5882;48.818;9.114;2023-03-02T17:38:10;16.10;;;9.55;;
11651;SDS011;5882;48.818;9.114;2023-03-02T17:40:38;13.27;;;8.40;;
11651;SDS011;5882;48.818;9.114;2023-03-02T17:43:05;10.95;;;7.60;;
11651;SDS011;5882;48.818;9.114;2023-03-02T17:45:32;13.30;;;8.77;;
11651;SDS011;5882;48.818;9.114;2023-03-02T17:47:59;12.77;;;8.30;;
11651;SDS011;5882;48.818;9.114;2023-03-02T17:50:26;13.40;;;8.65;;
11651;SDS011;5882;48.818;9.114;2023-03-02T17:52:56;13.05;;;8.10;;
11651;SDS011;5882;48.818;9.114;2023-03-02T17:55:26;12.88;;;8.02;;
11651;SDS011;5882;48.818;9.114;2023-03-02T17:57:53;12.82;;;9.10;;
11651;SDS011;5882;48.818;9.114;2023-03-02T18:00:23;14.15;;;8.20;;
11651;SDS011;5882;48.818;9.114;2023-03-02T18:02:50;11.93;;;8.05;;
11651;SDS011;5882;48.818;9.114;2023-03-02T18:05:17;16.48;;;8.52;;
11651;SDS011;5882;48.818;9.114;2023-03-02T18:07:46;14.98;;;8.50;;
11651;SDS011;5882;48.818;9.114;2023-03-02T18:10:14;14.05;;;8.45;;
11651;SDS011;5882;48.818;9.114;2023-03-02T18:12:40;16.05;;;8.63;;
11651;SDS011;5882;48.818;9.114;2023-03-02T18:15:08;12.73;;;8.68;;
11651;SDS011;5882;48.818;9.114;2023-03-02T18:17:36;13.48;;;8.70;;
11651;SDS011;5882;48.818;9.114;2023-03-02T18:20:03;14.10;;;9.27;;
11651;SDS011;5882;48.818;9.114;2023-03-02T18:22:30;13.75;;;8.23;;
11651;SDS011;5882;48.818;9.114;2023-03-02T18:24:57;13.98;;;8.85;;
11651;SDS011;5882;48.818;9.114;2023-03-02T18:27:25;15.40;;;9.50;;
11651;SDS011;5882;48.818;9.114;2023-03-02T18:29:51;15.65;;;9.75;;